• Join FlightAware (Why Join?)
  • Login
  • US Flag 
Rudolph Flight #1: Scheduled 
10:47PM EST


 

Airport Tracker/Info


-or-


 

Live Flight TrackerFlight Track Log ✈ CTL17 ✈ 09-May-2013 ✈ KPTK - KMBS

Flight Track Log - Related Links

Times and Time Zones

All times are in EDT time to prevent confusion due to time zone crossing. See the CTL17 flight status page for this flight to view local times or setup timezone preferences in your user account.

Time Position Orientation Groundspeed Altitude Reporting Facility
EDT Latitude Longitude Course Direction KTS MPH feet Rate Location/Type
03:54PM 42.6600 -83.4461 268° West 128 147 1,400  Level Cleveland Center
03:55PM 42.6594 -83.4717 268° West 124 143 1,900 900 Climbing Cleveland Center
03:56PM 42.6883 -83.4842 342° North 143 165 2,800 900 Climbing Cleveland Center
03:58PM 42.7475 -83.5253 14° North  Level Estimated
04:05PM 43.0104 -83.4881 321° Northwest  Level FlightAware Approximate
04:06PM 43.0434 -83.5245 321° Northwest  Level FlightAware Approximate
04:07PM 43.0764 -83.5610 321° Northwest  Level FlightAware Approximate
04:08PM 43.1094 -83.5975 321° Northwest  Level FlightAware Approximate
04:09PM 43.1423 -83.6341 321° Northwest  Level FlightAware Approximate
04:10PM 43.1753 -83.6706 321° Northwest  Level FlightAware Approximate
04:11PM 43.2082 -83.7073 321° Northwest  Level FlightAware Approximate
04:12PM 43.2403 -83.7454 318° Northwest  Level FlightAware Approximate
04:13PM 43.2720 -83.7841 318° Northwest  Level FlightAware Approximate
04:14PM 43.3037 -83.8229 318° Northwest  Level FlightAware Approximate
04:15PM 43.3353 -83.8616 318° Northwest  Level FlightAware Approximate
04:16PM 43.3670 -83.9004 324° Northwest  Level FlightAware Approximate
04:17PM 43.4014 -83.9346 324° Northwest  Level FlightAware Approximate
04:18PM 43.4357 -83.9689 324° Northwest  Level FlightAware Approximate
04:19PM 43.4700 -84.0033 324° Northwest  Level FlightAware Approximate
04:20PM 43.5030 -84.0394 305° West  Level FlightAware Approximate
04:21PM 43.5167 -84.0667 305° West  Level FlightAware Approximate
04:22PM 43.5329 -84.0796 305° West  Level Estimated
04:23PM 43.5329 -84.0796 305° West  Level Estimated
04:24PM 43.5329 -84.0796 305° West  Level Estimated
04:25PM 43.5329 -84.0796 305° West  Level Estimated
04:26PM 43.5329 -84.0796 305° West  Level Estimated